createdAt,value
2023-03-29T00:00:17.160Z,-4.84
2023-03-29T00:02:48.889Z,-4.87
2023-03-29T00:05:25.862Z,-4.89
2023-03-29T00:08:02.246Z,-4.90
2023-03-29T00:10:30.344Z,-4.91
2023-03-29T00:12:57.665Z,-4.91
2023-03-29T00:15:26.047Z,-4.93
2023-03-29T00:17:53.488Z,-4.89
2023-03-29T00:20:20.952Z,-4.84
2023-03-29T00:22:47.941Z,-4.77
2023-03-29T00:25:15.059Z,-4.73
2023-03-29T00:27:42.396Z,-4.67
2023-03-29T00:30:10.898Z,-4.62
2023-03-29T00:32:37.972Z,-4.56
2023-03-29T00:35:06.569Z,-4.53
2023-03-29T00:37:34.063Z,-4.54
2023-03-29T00:40:01.378Z,-4.56
2023-03-29T00:42:28.487Z,-4.55
2023-03-29T00:45:04.751Z,-4.55
2023-03-29T00:47:38.191Z,-4.59
2023-03-29T00:50:14.819Z,-4.63
2023-03-29T00:52:45.060Z,-4.70
2023-03-29T00:55:22.660Z,-4.75
2023-03-29T00:57:52.433Z,-4.80
2023-03-29T01:00:22.988Z,-4.85
2023-03-29T01:03:00.055Z,-4.86
2023-03-29T01:05:34.745Z,-4.88
2023-03-29T01:08:18.834Z,-4.92
2023-03-29T01:10:50.978Z,-4.97
2023-03-29T01:13:58.133Z,-5.02
2023-03-29T01:16:39.677Z,-5.07
2023-03-29T01:19:11.276Z,-5.09
2023-03-29T01:22:15.079Z,-5.08
2023-03-29T01:24:58.952Z,-5.05
2023-03-29T01:27:47.906Z,-5.01
2023-03-29T01:30:24.135Z,-4.97
2023-03-29T01:33:03.529Z,-4.91
2023-03-29T01:35:40.457Z,-4.85
2023-03-29T01:38:15.825Z,-4.82
2023-03-29T01:40:43.066Z,-4.80
2023-03-29T01:43:57.234Z,-4.78
2023-03-29T01:46:35.964Z,-4.78
2023-03-29T01:49:42.905Z,-4.81
2023-03-29T01:52:23.061Z,-4.84
2023-03-29T01:55:03.328Z,-4.85
2023-03-29T01:57:33.862Z,-4.90
2023-03-29T02:00:08.791Z,-4.94
2023-03-29T02:02:39.633Z,-5.02
2023-03-29T02:05:10.170Z,-5.10
2023-03-29T02:07:39.395Z,-5.16
2023-03-29T02:10:08.939Z,-5.20
2023-03-29T02:12:36.386Z,-5.21
2023-03-29T02:15:07.294Z,-5.24
2023-03-29T02:17:34.368Z,-5.28
2023-03-29T02:20:23.001Z,-5.33
2023-03-29T02:22:57.933Z,-5.39
2023-03-29T02:25:26.319Z,-5.45
2023-03-29T02:27:54.372Z,-5.48
2023-03-29T02:30:22.753Z,-5.54
2023-03-29T02:33:02.290Z,-5.56
2023-03-29T02:35:39.497Z,-5.54
2023-03-29T02:38:10.794Z,-5.54
2023-03-29T02:40:41.520Z,-5.50
2023-03-29T02:43:10.993Z,-5.52
2023-03-29T02:45:39.997Z,-5.54
2023-03-29T02:48:12.104Z,-5.57
2023-03-29T02:50:41.970Z,-5.58
2023-03-29T02:53:38.528Z,-5.61
2023-03-29T02:56:06.426Z,-5.60
2023-03-29T02:58:33.250Z,-5.56
2023-03-29T03:01:02.572Z,-5.53
2023-03-29T03:03:29.873Z,-5.53
2023-03-29T03:05:57.052Z,-5.56
2023-03-29T03:08:29.916Z,-5.60
2023-03-29T03:11:05.103Z,-5.60
2023-03-29T03:13:32.527Z,-5.57
2023-03-29T03:15:59.383Z,-5.55
2023-03-29T03:18:26.326Z,-5.58
2023-03-29T03:20:59.492Z,-5.68
2023-03-29T03:23:27.514Z,-5.82
2023-03-29T03:25:55.511Z,-5.93
2023-03-29T03:28:24.541Z,-6.00
2023-03-29T03:30:51.575Z,-6.02
2023-03-29T03:33:19.772Z,-6.03
2023-03-29T03:35:48.390Z,-6.03
2023-03-29T03:38:15.765Z,-6.00
2023-03-29T03:40:43.245Z,-5.97
2023-03-29T03:43:10.710Z,-5.94
2023-03-29T03:45:38.168Z,-5.87
2023-03-29T03:48:05.877Z,-5.80
2023-03-29T03:50:33.969Z,-5.73
2023-03-29T03:53:01.027Z,-5.63
2023-03-29T03:55:30.405Z,-5.53
2023-03-29T03:57:57.666Z,-5.44
2023-03-29T04:00:25.044Z,-5.34
2023-03-29T04:02:57.185Z,-5.29
2023-03-29T04:05:24.470Z,-5.26
2023-03-29T04:07:51.466Z,-5.25
2023-03-29T04:10:18.515Z,-5.30
2023-03-29T04:12:51.875Z,-5.45
2023-03-29T04:15:20.866Z,-5.60
2023-03-29T04:17:47.919Z,-5.68
2023-03-29T04:20:15.426Z,-5.72
2023-03-29T04:22:42.801Z,-5.72
2023-03-29T04:25:11.937Z,-5.74
2023-03-29T04:27:39.406Z,-5.77
2023-03-29T04:30:07.678Z,-5.79
2023-03-29T04:32:35.199Z,-5.81
2023-03-29T04:35:02.905Z,-5.83
2023-03-29T04:37:30.063Z,-5.84
2023-03-29T04:40:00.554Z,-5.83
2023-03-29T04:42:28.124Z,-5.79
2023-03-29T04:44:55.112Z,-5.73
2023-03-29T04:47:22.159Z,-5.65
2023-03-29T04:49:49.376Z,-5.56
2023-03-29T04:52:16.249Z,-5.45
2023-03-29T04:54:43.172Z,-5.35
2023-03-29T04:57:10.257Z,-5.24
2023-03-29T04:59:37.141Z,-5.14
2023-03-29T05:02:05.347Z,-5.07
2023-03-29T05:04:33.356Z,-5.01
2023-03-29T05:07:01.926Z,-4.96
2023-03-29T05:09:29.780Z,-4.92
2023-03-29T05:11:56.811Z,-4.89
2023-03-29T05:14:23.842Z,-4.86
2023-03-29T05:16:50.774Z,-4.84
2023-03-29T05:19:18.042Z,-4.81
2023-03-29T05:21:45.681Z,-4.77
2023-03-29T05:24:12.843Z,-4.75
2023-03-29T05:26:40.500Z,-4.72
2023-03-29T05:29:09.682Z,-4.68
2023-03-29T05:31:39.783Z,-4.63
2023-03-29T05:34:07.319Z,-4.58
2023-03-29T05:36:34.640Z,-4.51
2023-03-29T05:39:02.248Z,-4.42
2023-03-29T05:41:29.699Z,-4.33
2023-03-29T05:43:57.123Z,-4.22
2023-03-29T05:46:24.305Z,-4.11
2023-03-29T05:48:51.699Z,-4.02
2023-03-29T05:51:19.518Z,-3.93
2023-03-29T05:53:46.620Z,-3.86
2023-03-29T05:56:16.492Z,-3.79
2023-03-29T05:58:43.831Z,-3.70
2023-03-29T06:01:15.038Z,-3.61
2023-03-29T06:03:42.910Z,-3.49
2023-03-29T06:06:11.002Z,-3.40
2023-03-29T06:08:38.084Z,-3.29
2023-03-29T06:11:09.137Z,-3.16
2023-03-29T06:13:37.399Z,-3.02
2023-03-29T06:16:06.115Z,-2.89
2023-03-29T06:18:33.981Z,-2.74
2023-03-29T06:21:03.360Z,-2.60
2023-03-29T06:23:31.285Z,-2.44
2023-03-29T06:26:00.471Z,-2.32
2023-03-29T06:28:27.884Z,-2.18
2023-03-29T06:30:56.894Z,-2.07
2023-03-29T06:33:25.564Z,-1.92
2023-03-29T06:35:52.906Z,-1.75
2023-03-29T06:38:21.185Z,-1.58
2023-03-29T06:40:48.926Z,-1.45
2023-03-29T06:43:16.039Z,-1.34
2023-03-29T06:45:43.193Z,-1.19
2023-03-29T06:48:11.625Z,-1.07
2023-03-29T06:50:38.750Z,-0.98
2023-03-29T06:53:06.356Z,-0.91
2023-03-29T06:55:33.439Z,-0.84
2023-03-29T06:58:02.711Z,-0.74
2023-03-29T07:00:31.139Z,-0.68
2023-03-29T07:03:01.561Z,-0.55
2023-03-29T07:05:29.054Z,-0.45
2023-03-29T07:08:12.292Z,-0.32
2023-03-29T07:10:41.627Z,-0.18
2023-03-29T07:13:13.892Z,-0.11
2023-03-29T07:15:41.958Z,-0.02
2023-03-29T07:18:10.805Z,0.11
2023-03-29T07:20:39.263Z,0.21
2023-03-29T07:23:08.408Z,0.38
2023-03-29T07:25:37.148Z,0.59
2023-03-29T07:28:05.039Z,0.77
2023-03-29T07:30:32.829Z,0.83
2023-03-29T07:33:00.115Z,0.97
2023-03-29T07:35:29.399Z,1.08
2023-03-29T07:37:57.838Z,1.21
2023-03-29T07:40:26.612Z,1.30
2023-03-29T07:42:55.761Z,1.38
2023-03-29T07:45:26.928Z,1.52
2023-03-29T07:48:00.189Z,1.75
2023-03-29T07:50:33.159Z,1.93
2023-03-29T07:53:02.149Z,1.99
2023-03-29T07:55:29.676Z,2.12
2023-03-29T07:57:57.404Z,2.24
2023-03-29T08:00:25.479Z,2.42
2023-03-29T08:02:53.803Z,2.61
2023-03-29T08:05:40.134Z,2.77
2023-03-29T08:08:08.426Z,2.98
2023-03-29T08:10:37.407Z,3.08
2023-03-29T08:13:09.440Z,3.14
2023-03-29T08:15:39.371Z,3.26
2023-03-29T08:18:08.577Z,3.41
2023-03-29T08:20:35.756Z,3.71
2023-03-29T08:23:03.190Z,3.96
2023-03-29T08:25:30.654Z,4.00
2023-03-29T08:27:57.916Z,4.13
2023-03-29T08:30:25.492Z,4.35
2023-03-29T08:32:55.291Z,4.68
2023-03-29T08:35:23.411Z,5.03
2023-03-29T08:37:50.397Z,5.39
2023-03-29T08:40:22.407Z,5.71
2023-03-29T08:43:02.213Z,6.09
2023-03-29T08:45:53.570Z,6.47
2023-03-29T08:48:42.825Z,6.75
2023-03-29T08:51:20.218Z,6.81
2023-03-29T08:53:52.859Z,7.06
2023-03-29T08:56:31.527Z,7.24
2023-03-29T08:59:01.894Z,7.58
2023-03-29T09:01:35.248Z,7.96
2023-03-29T09:04:25.804Z,8.25
2023-03-29T09:06:53.402Z,8.48
2023-03-29T09:09:23.184Z,8.62
2023-03-29T09:12:14.671Z,8.82
2023-03-29T09:15:09.201Z,8.86
2023-03-29T09:17:36.474Z,8.85
2023-03-29T09:20:14.097Z,8.83
2023-03-29T09:22:47.562Z,9.16
2023-03-29T09:25:21.787Z,9.52
2023-03-29T09:27:50.698Z,9.91
2023-03-29T09:30:36.116Z,10.39
2023-03-29T09:33:12.889Z,10.64
2023-03-29T09:35:47.113Z,10.65
2023-03-29T09:38:17.825Z,10.57
2023-03-29T09:40:58.282Z,10.59
2023-03-29T09:43:36.379Z,10.82
2023-03-29T09:46:12.405Z,11.30
2023-03-29T09:48:44.203Z,11.63
2023-03-29T09:51:13.480Z,11.76
2023-03-29T09:53:40.788Z,11.80
2023-03-29T09:56:09.242Z,11.83
2023-03-29T09:58:55.044Z,11.82
2023-03-29T10:01:22.496Z,11.90
2023-03-29T10:03:52.572Z,12.04
2023-03-29T10:06:27.112Z,12.32
2023-03-29T10:08:57.051Z,12.35
2023-03-29T10:11:37.283Z,12.20
2023-03-29T10:14:17.373Z,12.40
2023-03-29T10:16:46.702Z,12.80
2023-03-29T10:19:22.732Z,13.26
2023-03-29T10:21:51.996Z,13.75
2023-03-29T10:24:24.581Z,13.79
2023-03-29T10:26:58.172Z,13.46
2023-03-29T10:29:26.467Z,13.17
2023-03-29T10:31:54.876Z,13.25
2023-03-29T10:34:26.315Z,13.21
2023-03-29T10:37:01.573Z,13.14
2023-03-29T10:39:34.123Z,13.52
2023-03-29T10:42:04.550Z,13.75
2023-03-29T10:44:35.287Z,13.67
2023-03-29T10:47:22.492Z,13.84
2023-03-29T10:49:56.859Z,14.06
2023-03-29T10:52:25.619Z,14.11
2023-03-29T10:54:56.656Z,14.25
2023-03-29T10:57:53.191Z,14.36
2023-03-29T11:00:42.998Z,14.61
2023-03-29T11:03:28.871Z,14.82
2023-03-29T11:06:22.312Z,15.06
2023-03-29T11:09:02.601Z,15.23
2023-03-29T11:12:08.250Z,15.56
2023-03-29T11:15:06.986Z,15.94
2023-03-29T11:17:51.858Z,15.77
2023-03-29T11:20:26.614Z,16.21
2023-03-29T11:23:21.385Z,16.12
2023-03-29T11:26:04.410Z,15.84
2023-03-29T11:28:46.241Z,15.60
2023-03-29T11:31:31.409Z,15.79
2023-03-29T11:34:05.092Z,16.15
2023-03-29T11:36:54.202Z,16.18
2023-03-29T11:39:59.362Z,16.02
2023-03-29T11:42:33.417Z,15.42
2023-03-29T11:45:03.216Z,15.21
2023-03-29T11:47:33.957Z,15.22
2023-03-29T11:50:06.893Z,15.42
2023-03-29T11:52:58.099Z,15.34
2023-03-29T11:55:38.502Z,15.09
2023-03-29T11:58:14.710Z,14.87
2023-03-29T12:00:42.110Z,14.89
2023-03-29T12:03:37.745Z,15.11
2023-03-29T12:06:22.610Z,15.41
2023-03-29T12:09:21.952Z,15.64
2023-03-29T12:12:08.524Z,15.46
2023-03-29T12:14:49.632Z,15.42
2023-03-29T12:17:24.687Z,15.31
2023-03-29T12:20:07.488Z,14.95
2023-03-29T12:22:34.366Z,14.88
2023-03-29T12:25:04.087Z,14.71
2023-03-29T12:28:17.100Z,14.60
2023-03-29T12:31:10.410Z,14.22
2023-03-29T12:34:12.871Z,14.02
2023-03-29T12:36:48.756Z,13.72
2023-03-29T12:39:19.092Z,13.53
2023-03-29T12:41:49.147Z,13.34
2023-03-29T12:44:20.835Z,13.50
2023-03-29T12:46:53.904Z,13.74
2023-03-29T12:49:32.052Z,13.86
2023-03-29T12:52:02.139Z,14.03
2023-03-29T12:54:33.685Z,14.15
2023-03-29T12:57:19.080Z,14.01
2023-03-29T12:59:50.046Z,13.90
2023-03-29T13:02:19.959Z,13.81
2023-03-29T13:04:54.076Z,13.46
2023-03-29T13:07:24.208Z,13.05
2023-03-29T13:10:03.880Z,12.71
2023-03-29T13:12:45.000Z,12.38
2023-03-29T13:15:14.917Z,12.54
2023-03-29T13:18:08.215Z,12.76
2023-03-29T13:20:59.124Z,12.90
2023-03-29T13:24:02.313Z,12.78
2023-03-29T13:26:47.947Z,12.63
2023-03-29T13:29:20.908Z,12.60
2023-03-29T13:32:20.076Z,12.61
2023-03-29T13:35:15.318Z,12.37
2023-03-29T13:37:49.147Z,12.20
2023-03-29T13:40:33.197Z,11.89
2023-03-29T13:43:21.413Z,11.71
2023-03-29T13:45:57.468Z,11.75
2023-03-29T13:48:30.230Z,11.72
2023-03-29T13:51:08.227Z,11.67
2023-03-29T13:54:01.005Z,11.50
2023-03-29T13:57:00.856Z,11.22
2023-03-29T13:59:51.854Z,11.07
2023-03-29T14:02:25.440Z,11.01
2023-03-29T14:04:53.769Z,10.98
2023-03-29T14:07:26.586Z,10.87
2023-03-29T14:09:56.028Z,10.76
2023-03-29T14:12:23.991Z,10.76
2023-03-29T14:14:58.718Z,10.68
2023-03-29T14:17:27.527Z,10.54
2023-03-29T14:19:58.330Z,10.27
2023-03-29T14:22:32.772Z,10.02
2023-03-29T14:25:06.593Z,9.82
2023-03-29T14:27:37.461Z,9.76
2023-03-29T14:30:23.524Z,9.71
2023-03-29T14:32:51.938Z,9.61
2023-03-29T14:35:19.855Z,9.58
2023-03-29T14:37:48.988Z,9.53
2023-03-29T14:40:20.278Z,9.45
2023-03-29T14:42:48.946Z,9.46
2023-03-29T14:45:18.173Z,9.44
2023-03-29T14:47:46.564Z,9.48
2023-03-29T14:50:21.930Z,9.44
2023-03-29T14:52:52.612Z,9.33
2023-03-29T14:55:23.905Z,9.20
2023-03-29T14:57:54.611Z,9.16
2023-03-29T15:00:35.364Z,9.13
2023-03-29T15:03:03.377Z,9.03
2023-03-29T15:05:37.984Z,8.95
2023-03-29T15:08:12.262Z,8.92
2023-03-29T15:10:42.370Z,8.90
2023-03-29T15:13:24.852Z,8.88
2023-03-29T15:16:00.316Z,8.86
2023-03-29T15:18:41.785Z,8.89
2023-03-29T15:21:13.545Z,8.87
2023-03-29T15:23:58.753Z,8.80
2023-03-29T15:26:36.162Z,8.74
2023-03-29T15:29:12.843Z,8.60
2023-03-29T15:31:42.244Z,8.53
2023-03-29T15:34:13.561Z,8.54
2023-03-29T15:36:46.746Z,8.50
2023-03-29T15:39:15.702Z,8.44
2023-03-29T15:41:44.511Z,8.39
2023-03-29T15:44:11.654Z,8.37
2023-03-29T15:46:38.504Z,8.34
2023-03-29T15:49:05.887Z,8.30
2023-03-29T15:51:33.127Z,8.28
2023-03-29T15:54:00.488Z,8.25
2023-03-29T15:56:28.293Z,8.24
2023-03-29T15:58:55.434Z,8.25
2023-03-29T16:01:37.844Z,8.23
2023-03-29T16:04:08.190Z,8.18
2023-03-29T16:06:36.407Z,8.13
2023-03-29T16:09:05.448Z,8.07
2023-03-29T16:11:33.213Z,7.98
2023-03-29T16:14:00.861Z,7.89
2023-03-29T16:16:27.839Z,7.84
2023-03-29T16:18:55.144Z,7.77
2023-03-29T16:21:23.409Z,7.72
2023-03-29T16:23:51.705Z,7.68
2023-03-29T16:26:18.848Z,7.64
2023-03-29T16:28:46.197Z,7.62
2023-03-29T16:31:14.294Z,7.57
2023-03-29T16:33:42.167Z,7.49
2023-03-29T16:36:10.624Z,7.40
2023-03-29T16:38:37.847Z,7.36
2023-03-29T16:41:05.420Z,7.33
2023-03-29T16:43:32.743Z,7.29
2023-03-29T16:46:00.169Z,7.24
2023-03-29T16:48:27.855Z,7.21
2023-03-29T16:50:55.113Z,7.17
2023-03-29T16:53:22.694Z,7.10
2023-03-29T16:55:50.080Z,7.08
2023-03-29T16:58:17.491Z,7.06
2023-03-29T17:00:47.939Z,7.02
2023-03-29T17:03:16.022Z,6.98
2023-03-29T17:05:53.974Z,6.93
2023-03-29T17:08:22.377Z,6.89
2023-03-29T17:10:54.331Z,6.85
2023-03-29T17:13:24.113Z,6.83
2023-03-29T17:15:52.957Z,6.80
2023-03-29T17:18:21.375Z,6.79
2023-03-29T17:20:50.878Z,6.77
2023-03-29T17:23:18.353Z,6.74
2023-03-29T17:25:45.641Z,6.73
2023-03-29T17:28:13.602Z,6.72
2023-03-29T17:30:41.213Z,6.70
2023-03-29T17:33:09.802Z,6.68
2023-03-29T17:35:37.223Z,6.65
2023-03-29T17:38:04.305Z,6.61
2023-03-29T17:40:31.628Z,6.59
2023-03-29T17:42:58.507Z,6.56
2023-03-29T17:45:26.468Z,6.52
2023-03-29T17:47:53.826Z,6.48
2023-03-29T17:50:21.862Z,6.43
2023-03-29T17:52:49.241Z,6.38
2023-03-29T17:55:16.587Z,6.32
2023-03-29T17:57:44.156Z,6.25
2023-03-29T18:00:14.292Z,6.22
2023-03-29T18:02:42.079Z,6.17
2023-03-29T18:05:10.423Z,6.12
2023-03-29T18:07:37.792Z,6.06
2023-03-29T18:10:15.688Z,6.00
2023-03-29T18:12:59.067Z,5.94
2023-03-29T18:15:38.256Z,5.89
2023-03-29T18:18:08.777Z,5.83
2023-03-29T18:20:35.857Z,5.79
2023-03-29T18:23:03.826Z,5.74
2023-03-29T18:25:30.870Z,5.68
2023-03-29T18:27:57.951Z,5.62
2023-03-29T18:30:25.999Z,5.57
2023-03-29T18:32:53.801Z,5.52
2023-03-29T18:35:21.206Z,5.47
2023-03-29T18:37:48.157Z,5.42
2023-03-29T18:40:15.947Z,5.37
2023-03-29T18:42:42.998Z,5.32
2023-03-29T18:45:10.963Z,5.27
2023-03-29T18:47:38.021Z,5.23
2023-03-29T18:50:05.671Z,5.18
2023-03-29T18:52:32.805Z,5.14
2023-03-29T18:55:00.178Z,5.11
2023-03-29T18:57:27.287Z,5.06
2023-03-29T18:59:54.393Z,5.05
2023-03-29T19:02:21.794Z,5.02
2023-03-29T19:04:48.876Z,4.98
2023-03-29T19:07:17.951Z,4.96
2023-03-29T19:09:45.756Z,4.94
2023-03-29T19:12:12.877Z,4.91
2023-03-29T19:14:40.114Z,4.89
2023-03-29T19:17:07.130Z,4.86
2023-03-29T19:19:34.233Z,4.83
2023-03-29T19:22:01.447Z,4.81
2023-03-29T19:24:29.359Z,4.76
2023-03-29T19:26:57.684Z,4.73
2023-03-29T19:29:24.890Z,4.67
2023-03-29T19:31:52.396Z,4.62
2023-03-29T19:34:24.374Z,4.59
2023-03-29T19:36:55.808Z,4.55
2023-03-29T19:39:23.051Z,4.51
2023-03-29T19:41:50.011Z,4.48
2023-03-29T19:44:16.933Z,4.47
2023-03-29T19:46:44.114Z,4.45
2023-03-29T19:49:14.165Z,4.45
2023-03-29T19:51:42.122Z,4.46
2023-03-29T19:54:11.675Z,4.48
2023-03-29T19:56:38.834Z,4.53
2023-03-29T19:59:05.823Z,4.56
2023-03-29T20:01:32.749Z,4.59
2023-03-29T20:03:59.932Z,4.62
2023-03-29T20:06:27.021Z,4.65
2023-03-29T20:08:54.312Z,4.67
2023-03-29T20:11:24.231Z,4.70
2023-03-29T20:13:51.522Z,4.72
2023-03-29T20:16:19.472Z,4.75
2023-03-29T20:18:46.841Z,4.77
2023-03-29T20:21:17.110Z,4.79
2023-03-29T20:23:44.440Z,4.80
2023-03-29T20:26:12.087Z,4.82
2023-03-29T20:28:40.145Z,4.84
2023-03-29T20:31:11.072Z,4.84
2023-03-29T20:33:38.233Z,4.85
2023-03-29T20:36:06.863Z,4.84
2023-03-29T20:38:34.044Z,4.85
2023-03-29T20:41:01.879Z,4.86
2023-03-29T20:43:30.230Z,4.87
2023-03-29T20:45:57.645Z,4.89
2023-03-29T20:48:30.482Z,4.90
2023-03-29T20:50:57.984Z,4.90
2023-03-29T20:53:25.354Z,4.91
2023-03-29T20:55:52.376Z,4.91
2023-03-29T20:58:19.255Z,4.93
2023-03-29T21:00:48.868Z,4.94
2023-03-29T21:03:16.046Z,4.94
2023-03-29T21:05:43.729Z,4.95
2023-03-29T21:08:11.506Z,4.96
2023-03-29T21:10:38.651Z,4.96
2023-03-29T21:13:06.229Z,4.96
2023-03-29T21:15:33.604Z,4.96
2023-03-29T21:18:00.558Z,4.97
2023-03-29T21:20:27.997Z,4.97
2023-03-29T21:22:54.901Z,4.98
2023-03-29T21:25:21.933Z,4.99
2023-03-29T21:27:49.660Z,4.98
2023-03-29T21:30:16.981Z,4.99
2023-03-29T21:32:43.925Z,4.99
2023-03-29T21:35:11.455Z,4.98
2023-03-29T21:37:39.109Z,4.98
2023-03-29T21:40:07.382Z,4.97
2023-03-29T21:42:35.136Z,4.97
2023-03-29T21:45:03.238Z,4.98
2023-03-29T21:47:30.840Z,4.98
2023-03-29T21:49:58.334Z,4.98
2023-03-29T21:52:25.774Z,4.97
2023-03-29T21:54:52.617Z,4.97
2023-03-29T21:57:19.635Z,4.98
2023-03-29T21:59:46.809Z,4.98
2023-03-29T22:02:13.916Z,4.98
2023-03-29T22:04:40.810Z,4.97
2023-03-29T22:07:10.945Z,4.97
2023-03-29T22:09:38.105Z,4.96
2023-03-29T22:12:05.643Z,4.96
2023-03-29T22:14:37.394Z,4.96
2023-03-29T22:17:08.239Z,4.96
2023-03-29T22:19:39.861Z,4.97
2023-03-29T22:22:14.093Z,4.96
2023-03-29T22:24:42.345Z,4.96
2023-03-29T22:27:10.030Z,4.97
2023-03-29T22:29:37.066Z,4.96
2023-03-29T22:32:04.152Z,4.96
2023-03-29T22:34:31.152Z,4.95
2023-03-29T22:36:58.227Z,4.94
2023-03-29T22:39:25.236Z,4.95
2023-03-29T22:41:52.327Z,4.95
2023-03-29T22:44:19.224Z,4.96
2023-03-29T22:46:46.168Z,4.97
2023-03-29T22:49:13.344Z,4.96
2023-03-29T22:51:40.389Z,4.98
2023-03-29T22:54:07.200Z,4.98
2023-03-29T22:56:34.197Z,5.00
2023-03-29T22:59:01.187Z,5.00
2023-03-29T23:01:28.278Z,5.00
2023-03-29T23:03:55.203Z,5.01
2023-03-29T23:06:22.152Z,5.03
2023-03-29T23:08:48.956Z,5.03
2023-03-29T23:11:16.032Z,5.05
2023-03-29T23:13:43.064Z,5.05
2023-03-29T23:16:10.271Z,5.06
2023-03-29T23:18:37.960Z,5.08
2023-03-29T23:21:06.272Z,5.08
2023-03-29T23:23:34.150Z,5.09
2023-03-29T23:26:02.303Z,5.11
2023-03-29T23:28:34.976Z,5.12
2023-03-29T23:31:05.708Z,5.13
2023-03-29T23:33:35.605Z,5.13
2023-03-29T23:36:05.821Z,5.13
2023-03-29T23:38:35.110Z,5.12
2023-03-29T23:41:04.981Z,5.13
2023-03-29T23:43:35.198Z,5.13
2023-03-29T23:46:05.953Z,5.13
2023-03-29T23:48:34.513Z,5.11
2023-03-29T23:51:02.410Z,5.08
2023-03-29T23:53:31.097Z,5.04
2023-03-29T23:56:00.666Z,5.00
2023-03-29T23:58:28.677Z,4.96
